sensor_id;sensor_type;location;lat;lon;timestamp;P1;durP1;ratioP1;P2;durP2;ratioP2
65996;SDS011;52765;52.258;21.052;2022-07-17T00:00:58;5.78;;;2.40;;
65996;SDS011;52765;52.258;21.052;2022-07-17T00:03:24;4.38;;;1.95;;
65996;SDS011;52765;52.258;21.052;2022-07-17T00:05:49;7.40;;;1.60;;
65996;SDS011;52765;52.258;21.052;2022-07-17T00:08:18;6.25;;;1.63;;
65996;SDS011;52765;52.258;21.052;2022-07-17T00:10:44;5.32;;;1.88;;
65996;SDS011;52765;52.258;21.052;2022-07-17T00:13:09;4.32;;;1.52;;
65996;SDS011;52765;52.258;21.052;2022-07-17T00:15:35;4.43;;;1.70;;
65996;SDS011;52765;52.258;21.052;2022-07-17T00:18:01;2.58;;;1.60;;
65996;SDS011;52765;52.258;21.052;2022-07-17T00:20:27;4.13;;;1.70;;
65996;SDS011;52765;52.258;21.052;2022-07-17T00:22:53;3.60;;;2.00;;
65996;SDS011;52765;52.258;21.052;2022-07-17T00:25:23;3.40;;;1.52;;
65996;SDS011;52765;52.258;21.052;2022-07-17T00:27:49;5.05;;;1.40;;
65996;SDS011;52765;52.258;21.052;2022-07-17T00:30:14;3.40;;;1.77;;
65996;SDS011;52765;52.258;21.052;2022-07-17T00:32:41;2.78;;;1.70;;
65996;SDS011;52765;52.258;21.052;2022-07-17T00:35:07;4.38;;;1.90;;
65996;SDS011;52765;52.258;21.052;2022-07-17T00:37:37;3.60;;;1.70;;
65996;SDS011;52765;52.258;21.052;2022-07-17T00:40:08;3.97;;;1.53;;
65996;SDS011;52765;52.258;21.052;2022-07-17T00:42:38;4.15;;;1.70;;
65996;SDS011;52765;52.258;21.052;2022-07-17T00:45:04;2.80;;;1.50;;
65996;SDS011;52765;52.258;21.052;2022-07-17T00:47:30;5.57;;;2.00;;
65996;SDS011;52765;52.258;21.052;2022-07-17T00:49:55;6.50;;;2.03;;
65996;SDS011;52765;52.258;21.052;2022-07-17T00:52:23;5.25;;;1.92;;
65996;SDS011;52765;52.258;21.052;2022-07-17T00:54:49;13.48;;;2.85;;
65996;SDS011;52765;52.258;21.052;2022-07-17T00:57:17;3.20;;;2.05;;
65996;SDS011;52765;52.258;21.052;2022-07-17T00:59:45;5.32;;;2.55;;
65996;SDS011;52765;52.258;21.052;2022-07-17T01:02:12;5.80;;;2.20;;
65996;SDS011;52765;52.258;21.052;2022-07-17T01:04:38;6.18;;;2.20;;
65996;SDS011;52765;52.258;21.052;2022-07-17T01:07:06;8.45;;;2.45;;
65996;SDS011;52765;52.258;21.052;2022-07-17T01:09:32;6.60;;;2.50;;
65996;SDS011;52765;52.258;21.052;2022-07-17T01:11:59;5.50;;;2.20;;
65996;SDS011;52765;52.258;21.052;2022-07-17T01:14:25;5.85;;;2.42;;
65996;SDS011;52765;52.258;21.052;2022-07-17T01:16:52;4.40;;;2.47;;
65996;SDS011;52765;52.258;21.052;2022-07-17T01:19:19;5.63;;;2.25;;
65996;SDS011;52765;52.258;21.052;2022-07-17T01:21:46;9.10;;;2.75;;
65996;SDS011;52765;52.258;21.052;2022-07-17T01:24:13;7.07;;;2.30;;
65996;SDS011;52765;52.258;21.052;2022-07-17T01:26:40;5.75;;;2.17;;
65996;SDS011;52765;52.258;21.052;2022-07-17T01:29:08;7.60;;;2.50;;
65996;SDS011;52765;52.258;21.052;2022-07-17T01:31:36;5.07;;;2.88;;
65996;SDS011;52765;52.258;21.052;2022-07-17T01:34:04;5.30;;;1.92;;
65996;SDS011;52765;52.258;21.052;2022-07-17T01:36:30;5.22;;;2.08;;
65996;SDS011;52765;52.258;21.052;2022-07-17T01:38:56;4.53;;;1.80;;
65996;SDS011;52765;52.258;21.052;2022-07-17T01:41:22;6.85;;;2.28;;
65996;SDS011;52765;52.258;21.052;2022-07-17T01:43:47;5.18;;;2.40;;
65996;SDS011;52765;52.258;21.052;2022-07-17T01:46:15;7.45;;;2.20;;
65996;SDS011;52765;52.258;21.052;2022-07-17T01:48:42;6.22;;;2.20;;
65996;SDS011;52765;52.258;21.052;2022-07-17T01:51:11;7.70;;;2.40;;
65996;SDS011;52765;52.258;21.052;2022-07-17T01:53:37;6.22;;;1.98;;
65996;SDS011;52765;52.258;21.052;2022-07-17T01:56:02;4.70;;;2.28;;
65996;SDS011;52765;52.258;21.052;2022-07-17T01:58:31;4.57;;;2.00;;
65996;SDS011;52765;52.258;21.052;2022-07-17T02:00:56;8.95;;;2.38;;
65996;SDS011;52765;52.258;21.052;2022-07-17T02:03:22;5.82;;;2.30;;
65996;SDS011;52765;52.258;21.052;2022-07-17T02:05:48;4.72;;;2.33;;
65996;SDS011;52765;52.258;21.052;2022-07-17T02:08:13;6.10;;;2.40;;
65996;SDS011;52765;52.258;21.052;2022-07-17T02:10:39;9.63;;;2.33;;
65996;SDS011;52765;52.258;21.052;2022-07-17T02:13:04;6.82;;;2.50;;
65996;SDS011;52765;52.258;21.052;2022-07-17T02:15:30;6.47;;;2.28;;
65996;SDS011;52765;52.258;21.052;2022-07-17T02:17:56;7.95;;;2.63;;
65996;SDS011;52765;52.258;21.052;2022-07-17T02:20:22;3.83;;;2.38;;
65996;SDS011;52765;52.258;21.052;2022-07-17T02:22:47;5.47;;;2.30;;
65996;SDS011;52765;52.258;21.052;2022-07-17T02:25:15;5.97;;;2.53;;
65996;SDS011;52765;52.258;21.052;2022-07-17T02:27:41;7.93;;;3.30;;
65996;SDS011;52765;52.258;21.052;2022-07-17T02:30:09;5.25;;;3.20;;
65996;SDS011;52765;52.258;21.052;2022-07-17T02:32:37;8.32;;;3.38;;
65996;SDS011;52765;52.258;21.052;2022-07-17T02:35:03;9.23;;;4.20;;
65996;SDS011;52765;52.258;21.052;2022-07-17T02:37:30;6.70;;;4.10;;
65996;SDS011;52765;52.258;21.052;2022-07-17T02:39:55;11.02;;;4.03;;
65996;SDS011;52765;52.258;21.052;2022-07-17T02:42:21;7.00;;;3.90;;
65996;SDS011;52765;52.258;21.052;2022-07-17T02:44:48;7.63;;;3.60;;
65996;SDS011;52765;52.258;21.052;2022-07-17T02:47:21;5.82;;;3.33;;
65996;SDS011;52765;52.258;21.052;2022-07-17T02:49:51;6.47;;;4.03;;
65996;SDS011;52765;52.258;21.052;2022-07-17T02:52:17;7.80;;;3.22;;
65996;SDS011;52765;52.258;21.052;2022-07-17T02:54:43;5.53;;;3.42;;
65996;SDS011;52765;52.258;21.052;2022-07-17T02:57:09;9.00;;;4.15;;
65996;SDS011;52765;52.258;21.052;2022-07-17T02:59:35;9.55;;;3.45;;
65996;SDS011;52765;52.258;21.052;2022-07-17T03:02:00;8.65;;;3.20;;
65996;SDS011;52765;52.258;21.052;2022-07-17T03:04:26;8.98;;;3.40;;
65996;SDS011;52765;52.258;21.052;2022-07-17T03:09:39;10.60;;;3.47;;
65996;SDS011;52765;52.258;21.052;2022-07-17T03:12:04;6.32;;;3.20;;
65996;SDS011;52765;52.258;21.052;2022-07-17T03:14:30;9.52;;;3.70;;
65996;SDS011;52765;52.258;21.052;2022-07-17T03:16:57;9.95;;;3.53;;
65996;SDS011;52765;52.258;21.052;2022-07-17T03:19:23;8.10;;;3.83;;
65996;SDS011;52765;52.258;21.052;2022-07-17T03:21:49;7.32;;;3.17;;
65996;SDS011;52765;52.258;21.052;2022-07-17T03:24:14;7.07;;;3.10;;
65996;SDS011;52765;52.258;21.052;2022-07-17T03:26:40;12.43;;;3.80;;
65996;SDS011;52765;52.258;21.052;2022-07-17T03:29:05;9.38;;;3.10;;
65996;SDS011;52765;52.258;21.052;2022-07-17T03:31:34;4.60;;;2.97;;
65996;SDS011;52765;52.258;21.052;2022-07-17T03:33:59;7.10;;;2.78;;
65996;SDS011;52765;52.258;21.052;2022-07-17T03:36:28;6.63;;;2.92;;
65996;SDS011;52765;52.258;21.052;2022-07-17T03:38:53;7.82;;;3.42;;
65996;SDS011;52765;52.258;21.052;2022-07-17T03:44:54;5.07;;;2.90;;
65996;SDS011;52765;52.258;21.052;2022-07-17T03:47:21;10.90;;;3.00;;
65996;SDS011;52765;52.258;21.052;2022-07-17T03:49:46;7.80;;;3.08;;
65996;SDS011;52765;52.258;21.052;2022-07-17T03:52:12;6.25;;;3.20;;
65996;SDS011;52765;52.258;21.052;2022-07-17T03:54:37;6.38;;;2.75;;
65996;SDS011;52765;52.258;21.052;2022-07-17T03:57:03;5.63;;;3.08;;
65996;SDS011;52765;52.258;21.052;2022-07-17T03:59:28;5.50;;;2.92;;
65996;SDS011;52765;52.258;21.052;2022-07-17T04:01:54;7.13;;;2.88;;
65996;SDS011;52765;52.258;21.052;2022-07-17T04:04:19;6.28;;;2.60;;
65996;SDS011;52765;52.258;21.052;2022-07-17T04:06:46;6.68;;;2.80;;
65996;SDS011;52765;52.258;21.052;2022-07-17T04:09:12;5.93;;;2.88;;
65996;SDS011;52765;52.258;21.052;2022-07-17T04:11:37;5.90;;;2.60;;
65996;SDS011;52765;52.258;21.052;2022-07-17T04:14:04;8.45;;;2.90;;
65996;SDS011;52765;52.258;21.052;2022-07-17T04:16:29;3.60;;;2.60;;
65996;SDS011;52765;52.258;21.052;2022-07-17T04:18:55;4.30;;;2.63;;
65996;SDS011;52765;52.258;21.052;2022-07-17T04:21:20;8.55;;;2.60;;
65996;SDS011;52765;52.258;21.052;2022-07-17T04:23:46;7.70;;;2.72;;
65996;SDS011;52765;52.258;21.052;2022-07-17T04:26:11;7.28;;;2.55;;
65996;SDS011;52765;52.258;21.052;2022-07-17T04:28:37;11.10;;;3.10;;
65996;SDS011;52765;52.258;21.052;2022-07-17T04:31:03;5.00;;;2.97;;
65996;SDS011;52765;52.258;21.052;2022-07-17T04:33:29;8.73;;;3.15;;
65996;SDS011;52765;52.258;21.052;2022-07-17T04:35:55;11.15;;;3.53;;
65996;SDS011;52765;52.258;21.052;2022-07-17T04:38:20;6.93;;;3.08;;
65996;SDS011;52765;52.258;21.052;2022-07-17T04:40:46;5.45;;;3.05;;
65996;SDS011;52765;52.258;21.052;2022-07-17T04:43:11;5.97;;;2.67;;
65996;SDS011;52765;52.258;21.052;2022-07-17T04:45:37;8.52;;;2.63;;
65996;SDS011;52765;52.258;21.052;2022-07-17T04:48:03;5.30;;;2.55;;
65996;SDS011;52765;52.258;21.052;2022-07-17T04:50:29;7.10;;;2.63;;
65996;SDS011;52765;52.258;21.052;2022-07-17T04:52:54;7.30;;;3.25;;
65996;SDS011;52765;52.258;21.052;2022-07-17T04:55:20;7.00;;;2.95;;
65996;SDS011;52765;52.258;21.052;2022-07-17T04:57:45;5.55;;;2.67;;
65996;SDS011;52765;52.258;21.052;2022-07-17T05:00:11;7.95;;;2.95;;
65996;SDS011;52765;52.258;21.052;2022-07-17T05:02:38;11.23;;;3.10;;
65996;SDS011;52765;52.258;21.052;2022-07-17T05:05:04;6.13;;;3.40;;
65996;SDS011;52765;52.258;21.052;2022-07-17T05:07:30;12.77;;;3.50;;
65996;SDS011;52765;52.258;21.052;2022-07-17T05:09:55;6.15;;;3.30;;
65996;SDS011;52765;52.258;21.052;2022-07-17T05:12:21;7.18;;;3.10;;
65996;SDS011;52765;52.258;21.052;2022-07-17T05:14:46;9.20;;;3.28;;
65996;SDS011;52765;52.258;21.052;2022-07-17T05:17:12;9.07;;;2.88;;
65996;SDS011;52765;52.258;21.052;2022-07-17T05:19:38;9.73;;;3.75;;
65996;SDS011;52765;52.258;21.052;2022-07-17T05:22:03;8.02;;;3.17;;
65996;SDS011;52765;52.258;21.052;2022-07-17T05:24:30;9.32;;;3.17;;
65996;SDS011;52765;52.258;21.052;2022-07-17T05:26:56;6.75;;;3.55;;
65996;SDS011;52765;52.258;21.052;2022-07-17T05:29:22;4.65;;;3.03;;
65996;SDS011;52765;52.258;21.052;2022-07-17T05:31:48;4.93;;;3.08;;
65996;SDS011;52765;52.258;21.052;2022-07-17T05:34:14;5.97;;;2.50;;
65996;SDS011;52765;52.258;21.052;2022-07-17T05:36:39;5.45;;;2.70;;
65996;SDS011;52765;52.258;21.052;2022-07-17T05:39:05;4.47;;;2.35;;
65996;SDS011;52765;52.258;21.052;2022-07-17T05:41:30;4.47;;;2.13;;
65996;SDS011;52765;52.258;21.052;2022-07-17T05:43:56;6.43;;;2.38;;
65996;SDS011;52765;52.258;21.052;2022-07-17T05:46:21;4.18;;;2.22;;
65996;SDS011;52765;52.258;21.052;2022-07-17T05:48:47;8.75;;;2.17;;
65996;SDS011;52765;52.258;21.052;2022-07-17T05:51:12;7.15;;;2.15;;
65996;SDS011;52765;52.258;21.052;2022-07-17T05:53:38;4.50;;;1.83;;
65996;SDS011;52765;52.258;21.052;2022-07-17T05:56:03;4.40;;;2.08;;
65996;SDS011;52765;52.258;21.052;2022-07-17T05:58:29;5.10;;;2.00;;
65996;SDS011;52765;52.258;21.052;2022-07-17T06:00:54;8.25;;;2.28;;
65996;SDS011;52765;52.258;21.052;2022-07-17T06:03:20;8.82;;;2.00;;
65996;SDS011;52765;52.258;21.052;2022-07-17T06:05:45;7.15;;;2.10;;
65996;SDS011;52765;52.258;21.052;2022-07-17T06:08:11;5.38;;;2.05;;
65996;SDS011;52765;52.258;21.052;2022-07-17T06:10:37;6.97;;;2.10;;
65996;SDS011;52765;52.258;21.052;2022-07-17T06:13:03;4.55;;;2.13;;
65996;SDS011;52765;52.258;21.052;2022-07-17T06:15:29;6.93;;;2.00;;
65996;SDS011;52765;52.258;21.052;2022-07-17T06:17:55;4.72;;;2.15;;
65996;SDS011;52765;52.258;21.052;2022-07-17T06:20:24;9.38;;;3.67;;
65996;SDS011;52765;52.258;21.052;2022-07-17T06:22:51;7.72;;;3.45;;
65996;SDS011;52765;52.258;21.052;2022-07-17T06:25:17;6.45;;;2.10;;
65996;SDS011;52765;52.258;21.052;2022-07-17T06:27:43;4.70;;;2.25;;
65996;SDS011;52765;52.258;21.052;2022-07-17T06:30:09;6.45;;;2.30;;
65996;SDS011;52765;52.258;21.052;2022-07-17T06:32:36;2.38;;;1.70;;
65996;SDS011;52765;52.258;21.052;2022-07-17T06:35:01;5.40;;;1.70;;
65996;SDS011;52765;52.258;21.052;2022-07-17T06:37:27;5.25;;;1.80;;
65996;SDS011;52765;52.258;21.052;2022-07-17T06:39:52;5.82;;;1.67;;
65996;SDS011;52765;52.258;21.052;2022-07-17T06:42:18;5.22;;;1.92;;
65996;SDS011;52765;52.258;21.052;2022-07-17T06:44:43;7.68;;;1.80;;
65996;SDS011;52765;52.258;21.052;2022-07-17T06:47:09;5.53;;;2.15;;
65996;SDS011;52765;52.258;21.052;2022-07-17T06:49:34;7.55;;;1.95;;
65996;SDS011;52765;52.258;21.052;2022-07-17T06:52:00;7.03;;;1.80;;
65996;SDS011;52765;52.258;21.052;2022-07-17T06:54:25;4.68;;;1.70;;
65996;SDS011;52765;52.258;21.052;2022-07-17T06:56:52;3.83;;;1.33;;
65996;SDS011;52765;52.258;21.052;2022-07-17T06:59:18;5.22;;;1.88;;
65996;SDS011;52765;52.258;21.052;2022-07-17T07:01:44;5.97;;;1.20;;
65996;SDS011;52765;52.258;21.052;2022-07-17T07:04:10;6.65;;;1.85;;
65996;SDS011;52765;52.258;21.052;2022-07-17T07:06:35;3.53;;;1.23;;
65996;SDS011;52765;52.258;21.052;2022-07-17T07:09:01;7.25;;;2.00;;
65996;SDS011;52765;52.258;21.052;2022-07-17T07:11:33;5.13;;;2.17;;
65996;SDS011;52765;52.258;21.052;2022-07-17T07:13:59;5.30;;;2.00;;
65996;SDS011;52765;52.258;21.052;2022-07-17T07:16:24;5.97;;;1.92;;
65996;SDS011;52765;52.258;21.052;2022-07-17T07:18:52;5.80;;;1.85;;
65996;SDS011;52765;52.258;21.052;2022-07-17T07:21:19;4.22;;;1.95;;
65996;SDS011;52765;52.258;21.052;2022-07-17T07:23:44;5.47;;;2.03;;
65996;SDS011;52765;52.258;21.052;2022-07-17T07:26:11;6.80;;;2.42;;
65996;SDS011;52765;52.258;21.052;2022-07-17T07:28:37;5.40;;;2.42;;
65996;SDS011;52765;52.258;21.052;2022-07-17T07:31:04;4.63;;;2.40;;
65996;SDS011;52765;52.258;21.052;2022-07-17T07:33:32;6.25;;;2.95;;
65996;SDS011;52765;52.258;21.052;2022-07-17T07:35:59;6.28;;;2.67;;
65996;SDS011;52765;52.258;21.052;2022-07-17T07:38:26;4.47;;;2.38;;
65996;SDS011;52765;52.258;21.052;2022-07-17T07:40:52;7.47;;;2.20;;
65996;SDS011;52765;52.258;21.052;2022-07-17T07:43:17;5.72;;;2.40;;
65996;SDS011;52765;52.258;21.052;2022-07-17T07:45:43;5.07;;;2.70;;
65996;SDS011;52765;52.258;21.052;2022-07-17T07:48:10;5.72;;;2.72;;
65996;SDS011;52765;52.258;21.052;2022-07-17T07:50:35;3.38;;;2.78;;
65996;SDS011;52765;52.258;21.052;2022-07-17T07:53:01;3.78;;;2.65;;
65996;SDS011;52765;52.258;21.052;2022-07-17T07:55:26;6.10;;;2.83;;
65996;SDS011;52765;52.258;21.052;2022-07-17T07:58:05;5.70;;;2.53;;
65996;SDS011;52765;52.258;21.052;2022-07-17T08:00:35;5.88;;;2.35;;
65996;SDS011;52765;52.258;21.052;2022-07-17T08:03:02;4.63;;;2.45;;
65996;SDS011;52765;52.258;21.052;2022-07-17T08:05:29;4.05;;;2.35;;
65996;SDS011;52765;52.258;21.052;2022-07-17T08:07:55;5.78;;;2.13;;
65996;SDS011;52765;52.258;21.052;2022-07-17T08:10:20;5.85;;;2.03;;
65996;SDS011;52765;52.258;21.052;2022-07-17T08:12:46;3.90;;;1.98;;
65996;SDS011;52765;52.258;21.052;2022-07-17T08:15:12;7.10;;;2.90;;
65996;SDS011;52765;52.258;21.052;2022-07-17T08:17:42;4.82;;;2.30;;
65996;SDS011;52765;52.258;21.052;2022-07-17T08:20:07;10.57;;;2.38;;
65996;SDS011;52765;52.258;21.052;2022-07-17T08:22:33;4.20;;;2.38;;
65996;SDS011;52765;52.258;21.052;2022-07-17T08:24:59;4.82;;;2.50;;
65996;SDS011;52765;52.258;21.052;2022-07-17T08:27:24;5.90;;;2.17;;
65996;SDS011;52765;52.258;21.052;2022-07-17T08:29:50;4.40;;;1.88;;
65996;SDS011;52765;52.258;21.052;2022-07-17T08:32:16;6.63;;;2.42;;
65996;SDS011;52765;52.258;21.052;2022-07-17T08:34:41;3.67;;;1.83;;
65996;SDS011;52765;52.258;21.052;2022-07-17T08:37:07;3.88;;;1.95;;
65996;SDS011;52765;52.258;21.052;2022-07-17T08:39:32;6.18;;;2.45;;
65996;SDS011;52765;52.258;21.052;2022-07-17T08:41:58;7.38;;;2.50;;
65996;SDS011;52765;52.258;21.052;2022-07-17T08:44:26;3.92;;;1.83;;
65996;SDS011;52765;52.258;21.052;2022-07-17T08:46:51;6.03;;;1.85;;
65996;SDS011;52765;52.258;21.052;2022-07-17T08:49:22;6.10;;;1.95;;
65996;SDS011;52765;52.258;21.052;2022-07-17T08:51:48;2.60;;;1.70;;
65996;SDS011;52765;52.258;21.052;2022-07-17T08:54:14;5.70;;;1.77;;
65996;SDS011;52765;52.258;21.052;2022-07-17T08:56:40;4.07;;;1.60;;
65996;SDS011;52765;52.258;21.052;2022-07-17T08:59:07;6.38;;;1.83;;
65996;SDS011;52765;52.258;21.052;2022-07-17T09:01:32;3.17;;;1.65;;
65996;SDS011;52765;52.258;21.052;2022-07-17T09:03:59;4.60;;;1.60;;
65996;SDS011;52765;52.258;21.052;2022-07-17T09:06:30;3.33;;;1.00;;
65996;SDS011;52765;52.258;21.052;2022-07-17T09:09:03;4.22;;;1.20;;
65996;SDS011;52765;52.258;21.052;2022-07-17T09:11:47;1.90;;;1.10;;
65996;SDS011;52765;52.258;21.052;2022-07-17T09:14:15;6.22;;;1.30;;
65996;SDS011;52765;52.258;21.052;2022-07-17T09:16:54;2.75;;;1.40;;
65996;SDS011;52765;52.258;21.052;2022-07-17T09:24:41;2.85;;;1.23;;
65996;SDS011;52765;52.258;21.052;2022-07-17T09:27:07;3.60;;;1.30;;
65996;SDS011;52765;52.258;21.052;2022-07-17T09:29:34;1.98;;;1.13;;
65996;SDS011;52765;52.258;21.052;2022-07-17T09:32:00;3.70;;;0.95;;
65996;SDS011;52765;52.258;21.052;2022-07-17T09:34:25;1.77;;;1.10;;
65996;SDS011;52765;52.258;21.052;2022-07-17T09:37:01;3.60;;;1.08;;
65996;SDS011;52765;52.258;21.052;2022-07-17T09:39:37;1.35;;;0.80;;
65996;SDS011;52765;52.258;21.052;2022-07-17T09:42:03;4.47;;;1.25;;
65996;SDS011;52765;52.258;21.052;2022-07-17T09:44:29;2.67;;;1.17;;
65996;SDS011;52765;52.258;21.052;2022-07-17T09:46:55;3.85;;;0.82;;
65996;SDS011;52765;52.258;21.052;2022-07-17T09:49:22;3.38;;;0.93;;
65996;SDS011;52765;52.258;21.052;2022-07-17T09:51:51;2.03;;;0.90;;
65996;SDS011;52765;52.258;21.052;2022-07-17T09:54:18;2.65;;;0.80;;
65996;SDS011;52765;52.258;21.052;2022-07-17T09:56:46;2.45;;;1.00;;
65996;SDS011;52765;52.258;21.052;2022-07-17T09:59:15;3.63;;;1.10;;
65996;SDS011;52765;52.258;21.052;2022-07-17T10:01:43;4.57;;;1.17;;
65996;SDS011;52765;52.258;21.052;2022-07-17T10:04:10;3.45;;;0.73;;
65996;SDS011;52765;52.258;21.052;2022-07-17T10:06:36;1.95;;;1.15;;
65996;SDS011;52765;52.258;21.052;2022-07-17T10:09:02;2.72;;;1.00;;
65996;SDS011;52765;52.258;21.052;2022-07-17T10:11:31;2.15;;;0.80;;
65996;SDS011;52765;52.258;21.052;2022-07-17T10:14:04;3.58;;;0.88;;
65996;SDS011;52765;52.258;21.052;2022-07-17T10:16:34;3.90;;;0.83;;
65996;SDS011;52765;52.258;21.052;2022-07-17T10:19:03;3.35;;;1.00;;
65996;SDS011;52765;52.258;21.052;2022-07-17T10:21:56;3.63;;;1.13;;
65996;SDS011;52765;52.258;21.052;2022-07-17T10:24:26;1.65;;;0.82;;
65996;SDS011;52765;52.258;21.052;2022-07-17T10:26:53;2.30;;;0.75;;
65996;SDS011;52765;52.258;21.052;2022-07-17T10:29:35;2.45;;;0.80;;
65996;SDS011;52765;52.258;21.052;2022-07-17T10:32:07;5.20;;;1.08;;
65996;SDS011;52765;52.258;21.052;2022-07-17T10:34:41;3.40;;;0.82;;
65996;SDS011;52765;52.258;21.052;2022-07-17T10:37:53;3.60;;;1.50;;
65996;SDS011;52765;52.258;21.052;2022-07-17T10:45:16;2.70;;;0.90;;
65996;SDS011;52765;52.258;21.052;2022-07-17T10:50:14;2.97;;;1.10;;
65996;SDS011;52765;52.258;21.052;2022-07-17T10:52:40;4.93;;;1.20;;
65996;SDS011;52765;52.258;21.052;2022-07-17T10:55:06;3.90;;;0.85;;
65996;SDS011;52765;52.258;21.052;2022-07-17T10:57:42;9.07;;;0.90;;
65996;SDS011;52765;52.258;21.052;2022-07-17T11:00:08;2.40;;;1.05;;
65996;SDS011;52765;52.258;21.052;2022-07-17T11:02:36;2.67;;;0.95;;
65996;SDS011;52765;52.258;21.052;2022-07-17T11:05:08;3.70;;;1.13;;
65996;SDS011;52765;52.258;21.052;2022-07-17T11:07:35;3.67;;;1.48;;
65996;SDS011;52765;52.258;21.052;2022-07-17T11:10:00;3.25;;;1.20;;
65996;SDS011;52765;52.258;21.052;2022-07-17T11:12:32;1.63;;;1.20;;
65996;SDS011;52765;52.258;21.052;2022-07-17T11:15:02;2.45;;;1.15;;
65996;SDS011;52765;52.258;21.052;2022-07-17T11:17:29;3.70;;;1.50;;
65996;SDS011;52765;52.258;21.052;2022-07-17T11:19:57;3.15;;;1.33;;
65996;SDS011;52765;52.258;21.052;2022-07-17T11:22:24;2.55;;;1.10;;
65996;SDS011;52765;52.258;21.052;2022-07-17T11:24:52;2.83;;;1.00;;
65996;SDS011;52765;52.258;21.052;2022-07-17T11:29:49;2.28;;;1.00;;
65996;SDS011;52765;52.258;21.052;2022-07-17T11:32:16;2.80;;;1.13;;
65996;SDS011;52765;52.258;21.052;2022-07-17T11:34:42;2.42;;;1.15;;
65996;SDS011;52765;52.258;21.052;2022-07-17T11:37:08;5.95;;;1.30;;
65996;SDS011;52765;52.258;21.052;2022-07-17T11:39:45;2.47;;;1.20;;
65996;SDS011;52765;52.258;21.052;2022-07-17T11:42:15;3.60;;;1.20;;
65996;SDS011;52765;52.258;21.052;2022-07-17T11:44:44;2.33;;;1.33;;
65996;SDS011;52765;52.258;21.052;2022-07-17T11:47:11;1.98;;;1.30;;
65996;SDS011;52765;52.258;21.052;2022-07-17T11:49:44;1.20;;;0.95;;
65996;SDS011;52765;52.258;21.052;2022-07-17T11:52:11;2.75;;;1.15;;
65996;SDS011;52765;52.258;21.052;2022-07-17T11:57:20;5.13;;;1.10;;
65996;SDS011;52765;52.258;21.052;2022-07-17T11:59:46;6.05;;;1.30;;
65996;SDS011;52765;52.258;21.052;2022-07-17T12:02:13;3.67;;;1.20;;
65996;SDS011;52765;52.258;21.052;2022-07-17T12:04:55;2.35;;;0.90;;
65996;SDS011;52765;52.258;21.052;2022-07-17T12:07:26;2.10;;;1.00;;
65996;SDS011;52765;52.258;21.052;2022-07-17T12:10:17;4.85;;;1.08;;
65996;SDS011;52765;52.258;21.052;2022-07-17T12:12:54;1.77;;;0.90;;
65996;SDS011;52765;52.258;21.052;2022-07-17T12:15:20;2.90;;;0.90;;
65996;SDS011;52765;52.258;21.052;2022-07-17T12:17:47;3.35;;;0.90;;
65996;SDS011;52765;52.258;21.052;2022-07-17T12:20:14;4.50;;;1.00;;
65996;SDS011;52765;52.258;21.052;2022-07-17T12:22:43;1.45;;;0.65;;
65996;SDS011;52765;52.258;21.052;2022-07-17T12:25:23;4.38;;;0.93;;
65996;SDS011;52765;52.258;21.052;2022-07-17T12:27:52;2.25;;;0.90;;
65996;SDS011;52765;52.258;21.052;2022-07-17T12:30:18;1.65;;;1.25;;
65996;SDS011;52765;52.258;21.052;2022-07-17T12:32:45;2.28;;;1.13;;
65996;SDS011;52765;52.258;21.052;2022-07-17T12:35:12;3.63;;;0.75;;
65996;SDS011;52765;52.258;21.052;2022-07-17T12:37:39;2.90;;;0.80;;
65996;SDS011;52765;52.258;21.052;2022-07-17T12:40:07;1.75;;;0.88;;
65996;SDS011;52765;52.258;21.052;2022-07-17T12:42:34;1.52;;;0.88;;
65996;SDS011;52765;52.258;21.052;2022-07-17T12:44:59;3.03;;;1.00;;
65996;SDS011;52765;52.258;21.052;2022-07-17T12:47:26;2.53;;;0.90;;
65996;SDS011;52765;52.258;21.052;2022-07-17T12:49:52;2.47;;;0.82;;
65996;SDS011;52765;52.258;21.052;2022-07-17T12:52:20;2.45;;;0.75;;
65996;SDS011;52765;52.258;21.052;2022-07-17T12:54:47;0.80;;;0.73;;
65996;SDS011;52765;52.258;21.052;2022-07-17T12:57:12;3.65;;;0.82;;
65996;SDS011;52765;52.258;21.052;2022-07-17T12:59:38;2.05;;;0.80;;
65996;SDS011;52765;52.258;21.052;2022-07-17T13:02:04;2.60;;;0.90;;
65996;SDS011;52765;52.258;21.052;2022-07-17T13:04:29;1.95;;;1.00;;
65996;SDS011;52765;52.258;21.052;2022-07-17T13:06:55;2.47;;;0.85;;
65996;SDS011;52765;52.258;21.052;2022-07-17T13:09:27;1.00;;;0.68;;
65996;SDS011;52765;52.258;21.052;2022-07-17T13:11:54;2.10;;;1.10;;
65996;SDS011;52765;52.258;21.052;2022-07-17T13:14:20;4.60;;;1.00;;
65996;SDS011;52765;52.258;21.052;2022-07-17T13:16:46;4.22;;;1.17;;
65996;SDS011;52765;52.258;21.052;2022-07-17T13:19:13;4.05;;;0.90;;
65996;SDS011;52765;52.258;21.052;2022-07-17T13:21:38;1.65;;;0.80;;
65996;SDS011;52765;52.258;21.052;2022-07-17T13:24:04;1.33;;;0.73;;
65996;SDS011;52765;52.258;21.052;2022-07-17T13:26:30;2.05;;;0.88;;
65996;SDS011;52765;52.258;21.052;2022-07-17T13:28:59;3.17;;;0.57;;
65996;SDS011;52765;52.258;21.052;2022-07-17T13:31:25;2.83;;;0.80;;
65996;SDS011;52765;52.258;21.052;2022-07-17T13:33:50;1.13;;;0.60;;
65996;SDS011;52765;52.258;21.052;2022-07-17T13:36:17;2.75;;;0.60;;
65996;SDS011;52765;52.258;21.052;2022-07-17T13:38:42;1.77;;;0.70;;
65996;SDS011;52765;52.258;21.052;2022-07-17T13:41:08;2.72;;;0.70;;
65996;SDS011;52765;52.258;21.052;2022-07-17T13:43:34;2.00;;;0.70;;
65996;SDS011;52765;52.258;21.052;2022-07-17T13:45:59;2.50;;;0.85;;
65996;SDS011;52765;52.258;21.052;2022-07-17T13:48:25;1.35;;;0.60;;
65996;SDS011;52765;52.258;21.052;2022-07-17T13:50:50;2.33;;;1.20;;
65996;SDS011;52765;52.258;21.052;2022-07-17T13:53:19;2.50;;;0.88;;
65996;SDS011;52765;52.258;21.052;2022-07-17T13:55:47;3.22;;;1.10;;
65996;SDS011;52765;52.258;21.052;2022-07-17T13:58:13;2.22;;;0.85;;
65996;SDS011;52765;52.258;21.052;2022-07-17T14:00:39;2.65;;;0.63;;
65996;SDS011;52765;52.258;21.052;2022-07-17T14:03:05;1.13;;;0.75;;
65996;SDS011;52765;52.258;21.052;2022-07-17T14:05:33;1.10;;;0.80;;
65996;SDS011;52765;52.258;21.052;2022-07-17T14:07:59;1.92;;;0.95;;
65996;SDS011;52765;52.258;21.052;2022-07-17T14:10:24;3.83;;;0.85;;
65996;SDS011;52765;52.258;21.052;2022-07-17T14:12:50;0.93;;;0.55;;
65996;SDS011;52765;52.258;21.052;2022-07-17T14:15:17;0.60;;;0.52;;
65996;SDS011;52765;52.258;21.052;2022-07-17T14:17:42;4.20;;;0.90;;
65996;SDS011;52765;52.258;21.052;2022-07-17T14:20:08;1.52;;;0.82;;
65996;SDS011;52765;52.258;21.052;2022-07-17T14:22:34;1.35;;;0.60;;
65996;SDS011;52765;52.258;21.052;2022-07-17T14:25:00;4.97;;;2.28;;
65996;SDS011;52765;52.258;21.052;2022-07-17T14:27:25;1.95;;;0.98;;
65996;SDS011;52765;52.258;21.052;2022-07-17T14:29:51;1.85;;;0.75;;
65996;SDS011;52765;52.258;21.052;2022-07-17T14:32:16;2.00;;;0.68;;
65996;SDS011;52765;52.258;21.052;2022-07-17T14:34:43;2.60;;;0.80;;
65996;SDS011;52765;52.258;21.052;2022-07-17T14:37:09;2.13;;;0.80;;
65996;SDS011;52765;52.258;21.052;2022-07-17T14:39:42;1.42;;;0.73;;
65996;SDS011;52765;52.258;21.052;2022-07-17T14:42:10;2.75;;;1.67;;
65996;SDS011;52765;52.258;21.052;2022-07-17T14:44:36;6.93;;;3.28;;
65996;SDS011;52765;52.258;21.052;2022-07-17T14:47:01;2.17;;;0.80;;
65996;SDS011;52765;52.258;21.052;2022-07-17T14:49:27;3.58;;;0.75;;
65996;SDS011;52765;52.258;21.052;2022-07-17T14:51:53;1.88;;;0.80;;
65996;SDS011;52765;52.258;21.052;2022-07-17T14:54:18;3.53;;;1.08;;
65996;SDS011;52765;52.258;21.052;2022-07-17T14:56:44;1.67;;;0.82;;